sensor_id;sensor_type;location;lat;lon;timestamp;pressure;altitude;pressure_sealevel;temperature;humidity
20228;BME280;12195;55.790;37.572;2023-08-08T00:01:30;98957.92;;;24.21;54.76
20228;BME280;12195;55.790;37.572;2023-08-08T00:04:03;98949.05;;;24.06;54.50
20228;BME280;12195;55.790;37.572;2023-08-08T00:06:47;98948.55;;;24.32;54.46
20228;BME280;12195;55.790;37.572;2023-08-08T00:09:29;98944.58;;;24.28;54.27
20228;BME280;12195;55.790;37.572;2023-08-08T00:12:02;98938.53;;;24.05;54.36
20228;BME280;12195;55.790;37.572;2023-08-08T00:14:45;98945.97;;;24.24;54.53
20228;BME280;12195;55.790;37.572;2023-08-08T00:17:17;98937.61;;;23.98;54.89
20228;BME280;12195;55.790;37.572;2023-08-08T00:19:50;98936.02;;;23.89;55.17
20228;BME280;12195;55.790;37.572;2023-08-08T00:22:33;98943.50;;;24.08;55.17
20228;BME280;12195;55.790;37.572;2023-08-08T00:25:06;98938.80;;;23.81;55.70
20228;BME280;12195;55.790;37.572;2023-08-08T00:27:51;98940.92;;;24.00;55.47
20228;BME280;12195;55.790;37.572;2023-08-08T00:30:23;98933.89;;;23.70;55.98
20228;BME280;12195;55.790;37.572;2023-08-08T00:33:08;98941.39;;;23.89;56.15
20228;BME280;12195;55.790;37.572;2023-08-08T00:35:51;98933.05;;;23.84;56.09
20228;BME280;12195;55.790;37.572;2023-08-08T00:38:24;98922.81;;;23.58;56.83
20228;BME280;12195;55.790;37.572;2023-08-08T00:41:06;98921.42;;;23.77;56.63
20228;BME280;12195;55.790;37.572;2023-08-08T00:43:49;98926.78;;;23.77;56.81
20228;BME280;12195;55.790;37.572;2023-08-08T00:46:22;98915.98;;;23.56;56.74
20228;BME280;12195;55.790;37.572;2023-08-08T00:49:06;98908.02;;;23.77;56.87
20228;BME280;12195;55.790;37.572;2023-08-08T00:51:39;98898.69;;;23.58;56.75
20228;BME280;12195;55.790;37.572;2023-08-08T00:54:23;98899.20;;;23.83;56.93
20228;BME280;12195;55.790;37.572;2023-08-08T00:57:06;98895.50;;;23.84;56.62
20228;BME280;12195;55.790;37.572;2023-08-08T00:59:51;98904.02;;;23.87;56.34
20228;BME280;12195;55.790;37.572;2023-08-08T01:02:35;98905.23;;;23.85;56.44
20228;BME280;12195;55.790;37.572;2023-08-08T01:05:09;98907.36;;;23.60;56.35
20228;BME280;12195;55.790;37.572;2023-08-08T01:08:06;98905.41;;;23.83;56.58
20228;BME280;12195;55.790;37.572;2023-08-08T01:10:41;98900.16;;;23.61;56.25
20228;BME280;12195;55.790;37.572;2023-08-08T01:13:30;98895.13;;;23.87;56.08
20228;BME280;12195;55.790;37.572;2023-08-08T01:16:04;98890.73;;;23.65;55.86
20228;BME280;12195;55.790;37.572;2023-08-08T01:18:38;98883.50;;;23.65;55.85
20228;BME280;12195;55.790;37.572;2023-08-08T01:21:24;98882.56;;;23.87;56.77
20228;BME280;12195;55.790;37.572;2023-08-08T01:26:59;98856.48;;;23.81;57.48
20228;BME280;12195;55.790;37.572;2023-08-08T01:29:33;98888.23;;;23.49;58.14
20228;BME280;12195;55.790;37.572;2023-08-08T01:32:17;98872.59;;;23.67;57.87
20228;BME280;12195;55.790;37.572;2023-08-08T01:34:50;98876.13;;;23.38;57.11
20228;BME280;12195;55.790;37.572;2023-08-08T01:37:46;98898.30;;;23.61;57.17
20228;BME280;12195;55.790;37.572;2023-08-08T01:40:30;98884.70;;;23.63;57.02
20228;BME280;12195;55.790;37.572;2023-08-08T01:43:18;98863.26;;;23.63;56.66
20228;BME280;12195;55.790;37.572;2023-08-08T01:46:04;98890.37;;;23.68;57.11
20228;BME280;12195;55.790;37.572;2023-08-08T01:48:48;98869.36;;;23.71;56.87
20228;BME280;12195;55.790;37.572;2023-08-08T01:51:21;98864.11;;;23.49;56.49
20228;BME280;12195;55.790;37.572;2023-08-08T01:54:07;98871.20;;;23.71;56.31
20228;BME280;12195;55.790;37.572;2023-08-08T01:56:41;98862.06;;;23.51;56.01
20228;BME280;12195;55.790;37.572;2023-08-08T01:59:24;98871.02;;;23.72;55.89
20228;BME280;12195;55.790;37.572;2023-08-08T02:02:06;98872.75;;;23.80;55.76
20228;BME280;12195;55.790;37.572;2023-08-08T02:04:39;98863.26;;;23.63;55.33
20228;BME280;12195;55.790;37.572;2023-08-08T02:07:12;98856.91;;;23.64;55.84
20228;BME280;12195;55.790;37.572;2023-08-08T02:09:57;98867.95;;;23.90;55.23
20228;BME280;12195;55.790;37.572;2023-08-08T02:12:39;98880.36;;;23.91;55.03
20228;BME280;12195;55.790;37.572;2023-08-08T02:15:23;98887.45;;;23.98;54.24
20228;BME280;12195;55.790;37.572;2023-08-08T02:17:56;98875.94;;;23.69;55.80
20228;BME280;12195;55.790;37.572;2023-08-08T02:20:38;98891.09;;;23.91;56.42
20228;BME280;12195;55.790;37.572;2023-08-08T02:23:22;98891.42;;;23.88;56.49
20228;BME280;12195;55.790;37.572;2023-08-08T02:25:55;98877.87;;;23.60;55.88
20228;BME280;12195;55.790;37.572;2023-08-08T02:28:40;98891.16;;;23.83;56.06
20228;BME280;12195;55.790;37.572;2023-08-08T02:31:22;98892.01;;;23.98;54.61
20228;BME280;12195;55.790;37.572;2023-08-08T02:34:08;98890.42;;;23.89;55.41
20228;BME280;12195;55.790;37.572;2023-08-08T02:36:41;98885.19;;;23.23;60.58
20228;BME280;12195;55.790;37.572;2023-08-08T02:39:25;98882.30;;;23.53;60.49
20228;BME280;12195;55.790;37.572;2023-08-08T02:41:58;98882.34;;;23.16;61.18
20228;BME280;12195;55.790;37.572;2023-08-08T02:44:41;98886.85;;;23.38;61.17
20228;BME280;12195;55.790;37.572;2023-08-08T02:47:26;98885.65;;;23.41;60.27
20228;BME280;12195;55.790;37.572;2023-08-08T02:50:10;98883.33;;;23.38;59.98
20228;BME280;12195;55.790;37.572;2023-08-08T02:52:52;98884.98;;;23.39;59.78
20228;BME280;12195;55.790;37.572;2023-08-08T02:55:38;98873.94;;;23.05;60.35
20228;BME280;12195;55.790;37.572;2023-08-08T02:58:12;98873.94;;;23.05;60.35
20228;BME280;12195;55.790;37.572;2023-08-08T03:00:56;98883.06;;;23.47;59.44
20228;BME280;12195;55.790;37.572;2023-08-08T03:03:29;98880.83;;;23.36;59.06
20228;BME280;12195;55.790;37.572;2023-08-08T03:06:13;98884.16;;;23.67;57.95
20228;BME280;12195;55.790;37.572;2023-08-08T03:08:46;98882.60;;;23.58;57.36
20228;BME280;12195;55.790;37.572;2023-08-08T03:11:19;98889.34;;;23.69;56.89
20228;BME280;12195;55.790;37.572;2023-08-08T03:14:02;98888.30;;;23.99;56.62
20228;BME280;12195;55.790;37.572;2023-08-08T03:16:35;98885.61;;;23.84;55.86
20228;BME280;12195;55.790;37.572;2023-08-08T03:19:22;98888.92;;;24.15;55.64
20228;BME280;12195;55.790;37.572;2023-08-08T03:21:55;98885.50;;;24.07;55.59
20228;BME280;12195;55.790;37.572;2023-08-08T03:24:38;98893.66;;;24.34;55.55
20228;BME280;12195;55.790;37.572;2023-08-08T03:27:24;98890.03;;;24.42;55.34
20228;BME280;12195;55.790;37.572;2023-08-08T03:29:57;98882.84;;;24.28;54.25
20228;BME280;12195;55.790;37.572;2023-08-08T03:32:42;98892.19;;;24.53;54.11
20228;BME280;12195;55.790;37.572;2023-08-08T03:35:15;98895.30;;;24.35;53.26
20228;BME280;12195;55.790;37.572;2023-08-08T03:37:58;98901.62;;;24.63;53.36
20228;BME280;12195;55.790;37.572;2023-08-08T03:40:41;98899.83;;;24.70;52.87
20228;BME280;12195;55.790;37.572;2023-08-08T03:43:24;98891.78;;;24.70;52.85
20228;BME280;12195;55.790;37.572;2023-08-08T03:45:57;98884.33;;;24.51;52.68
20228;BME280;12195;55.790;37.572;2023-08-08T03:48:43;98887.55;;;24.82;52.30
20228;BME280;12195;55.790;37.572;2023-08-08T03:51:27;98902.87;;;24.88;51.79
20228;BME280;12195;55.790;37.572;2023-08-08T03:54:11;98894.20;;;24.86;52.25
20228;BME280;12195;55.790;37.572;2023-08-08T03:56:45;98890.55;;;24.73;52.01
20228;BME280;12195;55.790;37.572;2023-08-08T03:59:30;98905.89;;;25.00;51.88
20228;BME280;12195;55.790;37.572;2023-08-08T04:02:04;98897.38;;;24.54;52.01
20228;BME280;12195;55.790;37.572;2023-08-08T04:04:48;98908.58;;;25.00;51.77
20228;BME280;12195;55.790;37.572;2023-08-08T04:07:22;98904.75;;;24.88;51.32
20228;BME280;12195;55.790;37.572;2023-08-08T04:10:07;98916.59;;;25.21;51.49
20228;BME280;12195;55.790;37.572;2023-08-08T04:12:40;98910.47;;;25.06;51.21
20228;BME280;12195;55.790;37.572;2023-08-08T04:15:25;98919.41;;;25.34;50.78
20228;BME280;12195;55.790;37.572;2023-08-08T04:18:07;98915.25;;;25.32;50.89
20228;BME280;12195;55.790;37.572;2023-08-08T04:20:52;98916.48;;;25.29;50.97
20228;BME280;12195;55.790;37.572;2023-08-08T04:23:25;98905.19;;;24.91;51.44
20228;BME280;12195;55.790;37.572;2023-08-08T04:26:10;98918.53;;;25.06;53.55
20228;BME280;12195;55.790;37.572;2023-08-08T04:28:54;98916.91;;;24.84;55.73
20228;BME280;12195;55.790;37.572;2023-08-08T04:31:27;98904.92;;;24.44;55.78
20228;BME280;12195;55.790;37.572;2023-08-08T04:34:12;98919.42;;;24.64;56.09
20228;BME280;12195;55.790;37.572;2023-08-08T04:36:44;98919.46;;;24.35;56.76
20228;BME280;12195;55.790;37.572;2023-08-08T04:39:29;98921.97;;;24.58;56.29
20228;BME280;12195;55.790;37.572;2023-08-08T04:42:03;98913.66;;;24.32;56.03
20228;BME280;12195;55.790;37.572;2023-08-08T04:44:36;98927.52;;;24.35;56.53
20228;BME280;12195;55.790;37.572;2023-08-08T04:47:21;98931.81;;;24.65;55.17
20228;BME280;12195;55.790;37.572;2023-08-08T04:50:06;98926.34;;;24.59;56.21
20228;BME280;12195;55.790;37.572;2023-08-08T04:52:39;98916.52;;;24.30;56.16
20228;BME280;12195;55.790;37.572;2023-08-08T04:55:24;98925.69;;;24.57;55.75
20228;BME280;12195;55.790;37.572;2023-08-08T04:57:59;98922.98;;;24.36;56.32
20228;BME280;12195;55.790;37.572;2023-08-08T05:00:45;98921.45;;;24.62;56.06
20228;BME280;12195;55.790;37.572;2023-08-08T05:03:27;98921.63;;;24.61;55.69
20228;BME280;12195;55.790;37.572;2023-08-08T05:06:01;98919.02;;;24.32;56.31
20228;BME280;12195;55.790;37.572;2023-08-08T05:08:50;98923.66;;;24.59;55.81
20228;BME280;12195;55.790;37.572;2023-08-08T05:11:58;98930.03;;;24.58;56.22
20228;BME280;12195;55.790;37.572;2023-08-08T05:14:35;98937.44;;;24.35;56.79
20228;BME280;12195;55.790;37.572;2023-08-08T05:17:31;98945.92;;;24.74;56.05
20228;BME280;12195;55.790;37.572;2023-08-08T05:20:16;98939.15;;;24.78;56.35
20228;BME280;12195;55.790;37.572;2023-08-08T05:22:50;98944.14;;;24.81;55.19
20228;BME280;12195;55.790;37.572;2023-08-08T05:25:23;98944.50;;;24.99;54.61
20228;BME280;12195;55.790;37.572;2023-08-08T05:28:11;98944.48;;;25.41;54.11
20228;BME280;12195;55.790;37.572;2023-08-08T05:30:58;98936.27;;;25.49;54.28
20228;BME280;12195;55.790;37.572;2023-08-08T05:33:32;98933.08;;;25.39;54.01
20228;BME280;12195;55.790;37.572;2023-08-08T05:36:16;98938.72;;;25.78;53.51
20228;BME280;12195;55.790;37.572;2023-08-08T05:38:52;98933.05;;;25.67;53.02
20228;BME280;12195;55.790;37.572;2023-08-08T05:41:40;98941.34;;;25.99;52.60
20228;BME280;12195;55.790;37.572;2023-08-08T05:44:14;98941.77;;;25.69;53.08
20228;BME280;12195;55.790;37.572;2023-08-08T05:46:59;98942.91;;;25.87;52.79
20228;BME280;12195;55.790;37.572;2023-08-08T05:49:35;98937.34;;;25.55;52.66
20228;BME280;12195;55.790;37.572;2023-08-08T05:52:19;98937.91;;;25.84;52.65
20228;BME280;12195;55.790;37.572;2023-08-08T05:55:04;98934.53;;;25.69;53.56
20228;BME280;12195;55.790;37.572;2023-08-08T05:57:41;98935.80;;;25.73;52.16
20228;BME280;12195;55.790;37.572;2023-08-08T06:00:26;98929.02;;;26.24;51.52
20228;BME280;12195;55.790;37.572;2023-08-08T06:03:01;98929.66;;;26.26;50.75
20228;BME280;12195;55.790;37.572;2023-08-08T06:05:46;98933.34;;;26.85;50.02
20228;BME280;12195;55.790;37.572;2023-08-08T06:08:21;98928.79;;;26.99;48.85
20228;BME280;12195;55.790;37.572;2023-08-08T06:11:05;98945.80;;;27.51;48.44
20228;BME280;12195;55.790;37.572;2023-08-08T06:13:39;98941.03;;;27.40;47.86
20228;BME280;12195;55.790;37.572;2023-08-08T06:16:14;98941.26;;;27.45;47.70
20228;BME280;12195;55.790;37.572;2023-08-08T06:18:59;98937.05;;;27.82;47.63
20228;BME280;12195;55.790;37.572;2023-08-08T06:21:39;98928.53;;;27.65;47.05
20228;BME280;12195;55.790;37.572;2023-08-08T06:24:12;98932.48;;;27.76;46.85
20228;BME280;12195;55.790;37.572;2023-08-08T06:26:58;98941.55;;;28.07;46.85
20228;BME280;12195;55.790;37.572;2023-08-08T06:29:32;98937.88;;;27.63;47.09
20228;BME280;12195;55.790;37.572;2023-08-08T06:34:59;98942.45;;;27.82;47.29
20228;BME280;12195;55.790;37.572;2023-08-08T06:37:42;98940.14;;;27.85;47.26
20228;BME280;12195;55.790;37.572;2023-08-08T06:40:18;98944.53;;;27.60;47.18
20228;BME280;12195;55.790;37.572;2023-08-08T06:43:04;98951.53;;;28.00;46.97
20228;BME280;12195;55.790;37.572;2023-08-08T06:45:49;98940.73;;;28.00;46.86
20228;BME280;12195;55.790;37.572;2023-08-08T06:48:33;98942.34;;;28.08;46.61
20228;BME280;12195;55.790;37.572;2023-08-08T06:51:08;98936.81;;;27.90;46.55
20228;BME280;12195;55.790;37.572;2023-08-08T06:53:54;98941.38;;;28.40;45.93
20228;BME280;12195;55.790;37.572;2023-08-08T06:56:38;98931.97;;;28.55;45.96
20228;BME280;12195;55.790;37.572;2023-08-08T06:59:12;98932.30;;;28.28;45.52
20228;BME280;12195;55.790;37.572;2023-08-08T07:01:59;98947.08;;;28.69;45.15
20228;BME280;12195;55.790;37.572;2023-08-08T07:04:44;98948.13;;;28.68;45.95
20228;BME280;12195;55.790;37.572;2023-08-08T07:07:18;98941.92;;;28.61;44.87
20228;BME280;12195;55.790;37.572;2023-08-08T07:10:04;98951.02;;;28.98;44.72
20228;BME280;12195;55.790;37.572;2023-08-08T07:12:38;98952.22;;;28.77;44.55
20228;BME280;12195;55.790;37.572;2023-08-08T07:15:24;98959.92;;;29.36;44.31
20228;BME280;12195;55.790;37.572;2023-08-08T07:18:10;98962.34;;;29.69;43.33
20228;BME280;12195;55.790;37.572;2023-08-08T07:20:45;98958.96;;;29.49;42.89
20228;BME280;12195;55.790;37.572;2023-08-08T07:23:33;98966.52;;;29.89;42.48
20228;BME280;12195;55.790;37.572;2023-08-08T07:26:20;98965.34;;;29.79;42.73
20228;BME280;12195;55.790;37.572;2023-08-08T07:29:08;98967.83;;;29.62;43.54
20228;BME280;12195;55.790;37.572;2023-08-08T07:31:44;98952.41;;;29.13;43.48
20228;BME280;12195;55.790;37.572;2023-08-08T07:34:29;98955.73;;;29.40;43.78
20228;BME280;12195;55.790;37.572;2023-08-08T07:37:17;98965.66;;;29.46;43.42
20228;BME280;12195;55.790;37.572;2023-08-08T07:39:52;98959.64;;;29.19;43.85
20228;BME280;12195;55.790;37.572;2023-08-08T07:42:37;98962.41;;;29.62;43.76
20228;BME280;12195;55.790;37.572;2023-08-08T07:45:11;98955.76;;;29.33;43.25
20228;BME280;12195;55.790;37.572;2023-08-08T07:47:57;98974.66;;;29.65;43.37
20228;BME280;12195;55.790;37.572;2023-08-08T07:50:30;98961.75;;;29.18;43.82
20228;BME280;12195;55.790;37.572;2023-08-08T07:53:15;98965.09;;;29.38;44.75
20228;BME280;12195;55.790;37.572;2023-08-08T07:55:48;98957.27;;;28.98;45.65
20228;BME280;12195;55.790;37.572;2023-08-08T07:58:33;98973.67;;;29.35;44.90
20228;BME280;12195;55.790;37.572;2023-08-08T08:01:24;98967.36;;;29.41;44.61
20228;BME280;12195;55.790;37.572;2023-08-08T08:04:32;98967.02;;;29.55;44.21
20228;BME280;12195;55.790;37.572;2023-08-08T08:07:17;98972.21;;;29.57;44.21
20228;BME280;12195;55.790;37.572;2023-08-08T08:09:50;98959.36;;;29.28;44.25
20228;BME280;12195;55.790;37.572;2023-08-08T08:12:34;98971.96;;;29.65;44.05
20228;BME280;12195;55.790;37.572;2023-08-08T08:15:08;98968.07;;;29.29;43.70
20228;BME280;12195;55.790;37.572;2023-08-08T08:17:54;98964.46;;;29.67;43.64
20228;BME280;12195;55.790;37.572;2023-08-08T08:20:41;98976.80;;;29.81;43.81
20228;BME280;12195;55.790;37.572;2023-08-08T08:23:28;98972.08;;;29.94;43.20
20228;BME280;12195;55.790;37.572;2023-08-08T08:26:04;98974.68;;;29.83;42.91
20228;BME280;12195;55.790;37.572;2023-08-08T08:28:49;98985.27;;;30.27;42.85
20228;BME280;12195;55.790;37.572;2023-08-08T08:31:23;98977.72;;;29.93;42.50
20228;BME280;12195;55.790;37.572;2023-08-08T08:34:10;98991.44;;;30.34;42.79
20228;BME280;12195;55.790;37.572;2023-08-08T08:36:46;98987.63;;;29.99;42.37
20228;BME280;12195;55.790;37.572;2023-08-08T08:39:32;98984.45;;;30.26;42.51
20228;BME280;12195;55.790;37.572;2023-08-08T08:42:07;98986.47;;;29.21;44.73
20228;BME280;12195;55.790;37.572;2023-08-08T08:44:57;98995.75;;;29.81;44.31
20228;BME280;12195;55.790;37.572;2023-08-08T08:47:37;98988.83;;;29.67;43.21
20228;BME280;12195;55.790;37.572;2023-08-08T08:50:26;98991.97;;;30.24;42.70
20228;BME280;12195;55.790;37.572;2023-08-08T08:53:15;98997.14;;;30.44;42.05
20228;BME280;12195;55.790;37.572;2023-08-08T08:55:52;98986.91;;;30.28;41.67
20228;BME280;12195;55.790;37.572;2023-08-08T08:58:43;98996.53;;;30.78;41.54
20228;BME280;12195;55.790;37.572;2023-08-08T09:01:18;98996.69;;;30.47;41.38
20228;BME280;12195;55.790;37.572;2023-08-08T09:04:09;98996.27;;;30.79;41.73
20228;BME280;12195;55.790;37.572;2023-08-08T09:06:43;98994.91;;;30.41;41.53
20228;BME280;12195;55.790;37.572;2023-08-08T09:09:34;99005.98;;;30.87;41.54
20228;BME280;12195;55.790;37.572;2023-08-08T09:12:11;98995.11;;;30.75;41.02
20228;BME280;12195;55.790;37.572;2023-08-08T09:14:57;99001.45;;;31.40;40.66
20228;BME280;12195;55.790;37.572;2023-08-08T09:17:30;98992.91;;;31.25;39.80
20228;BME280;12195;55.790;37.572;2023-08-08T09:20:05;99005.75;;;31.82;39.85
20228;BME280;12195;55.790;37.572;2023-08-08T09:22:52;99005.74;;;32.05;39.59
20228;BME280;12195;55.790;37.572;2023-08-08T09:25:28;98995.39;;;30.97;40.91
20228;BME280;12195;55.790;37.572;2023-08-08T09:28:17;99001.73;;;31.84;40.11
20228;BME280;12195;55.790;37.572;2023-08-08T09:30:51;98998.85;;;31.56;40.23
20228;BME280;12195;55.790;37.572;2023-08-08T09:33:28;98997.81;;;31.57;39.95
20228;BME280;12195;55.790;37.572;2023-08-08T09:36:16;99008.34;;;31.88;39.83
20228;BME280;12195;55.790;37.572;2023-08-08T09:38:52;99006.83;;;31.28;39.88
20228;BME280;12195;55.790;37.572;2023-08-08T09:41:39;99009.97;;;31.66;40.28
20228;BME280;12195;55.790;37.572;2023-08-08T09:44:16;99008.51;;;31.29;39.82
20228;BME280;12195;55.790;37.572;2023-08-08T09:46:50;99005.92;;;31.46;39.52
20228;BME280;12195;55.790;37.572;2023-08-08T09:49:28;99008.44;;;31.70;39.54
20228;BME280;12195;55.790;37.572;2023-08-08T09:52:02;99012.72;;;32.01;38.88
20228;BME280;12195;55.790;37.572;2023-08-08T09:54:50;99014.34;;;32.76;38.47
20228;BME280;12195;55.790;37.572;2023-08-08T09:57:32;99004.03;;;32.50;37.99
20228;BME280;12195;55.790;37.572;2023-08-08T10:00:06;99012.76;;;32.52;38.02
20228;BME280;12195;55.790;37.572;2023-08-08T10:02:55;99021.89;;;32.74;37.83
20228;BME280;12195;55.790;37.572;2023-08-08T10:05:33;99020.39;;;31.92;39.23
20228;BME280;12195;55.790;37.572;2023-08-08T10:08:23;99026.41;;;32.06;39.53
20228;BME280;12195;55.790;37.572;2023-08-08T10:10:58;99011.00;;;31.42;39.56
20228;BME280;12195;55.790;37.572;2023-08-08T10:13:32;99019.33;;;31.82;39.40
20228;BME280;12195;55.790;37.572;2023-08-08T10:16:10;99017.66;;;32.04;39.03
20228;BME280;12195;55.790;37.572;2023-08-08T10:19:02;99017.58;;;32.61;38.10
20228;BME280;12195;55.790;37.572;2023-08-08T10:21:41;99014.62;;;32.63;37.02
20228;BME280;12195;55.790;37.572;2023-08-08T10:24:12;99007.07;;;32.93;36.81
20228;BME280;12195;55.790;37.572;2023-08-08T10:26:59;99024.44;;;33.48;36.45
20228;BME280;12195;55.790;37.572;2023-08-08T10:30:09;99018.73;;;33.66;36.15
20228;BME280;12195;55.790;37.572;2023-08-08T10:32:46;99010.95;;;33.42;35.82
20228;BME280;12195;55.790;37.572;2023-08-08T10:35:38;99026.31;;;33.97;35.70
20228;BME280;12195;55.790;37.572;2023-08-08T10:38:11;99022.28;;;33.50;35.56
20228;BME280;12195;55.790;37.572;2023-08-08T10:40:58;99034.48;;;33.97;35.76
20228;BME280;12195;55.790;37.572;2023-08-08T10:43:51;99033.69;;;33.97;35.95
20228;BME280;12195;55.790;37.572;2023-08-08T10:46:35;99029.94;;;33.37;37.03
20228;BME280;12195;55.790;37.572;2023-08-08T10:49:12;99026.89;;;33.05;36.68
20228;BME280;12195;55.790;37.572;2023-08-08T10:51:48;99023.61;;;33.03;36.80
20228;BME280;12195;55.790;37.572;2023-08-08T10:54:33;99037.88;;;33.38;36.96
20228;BME280;12195;55.790;37.572;2023-08-08T10:57:15;99037.55;;;32.67;37.76
20228;BME280;12195;55.790;37.572;2023-08-08T10:59:53;99052.02;;;32.95;37.51
20228;BME280;12195;55.790;37.572;2023-08-08T11:02:38;99054.05;;;32.03;39.62
20228;BME280;12195;55.790;37.572;2023-08-08T11:05:11;99050.97;;;31.76;39.36
20228;BME280;12195;55.790;37.572;2023-08-08T11:07:44;99043.08;;;31.86;39.25
20228;BME280;12195;55.790;37.572;2023-08-08T11:10:18;99048.14;;;31.83;39.20
20228;BME280;12195;55.790;37.572;2023-08-08T11:13:06;99055.83;;;32.20;39.14
20228;BME280;12195;55.790;37.572;2023-08-08T11:15:42;99041.72;;;31.66;39.80
20228;BME280;12195;55.790;37.572;2023-08-08T11:18:27;99056.66;;;31.86;39.47
20228;BME280;12195;55.790;37.572;2023-08-08T11:21:08;99042.11;;;30.51;41.92
20228;BME280;12195;55.790;37.572;2023-08-08T11:23:51;99052.79;;;31.12;41.03
20228;BME280;12195;55.790;37.572;2023-08-08T11:26:24;99049.09;;;30.59;41.32
20228;BME280;12195;55.790;37.572;2023-08-08T11:29:00;99048.42;;;30.63;41.59
20228;BME280;12195;55.790;37.572;2023-08-08T11:31:43;99059.69;;;30.96;41.92
20228;BME280;12195;55.790;37.572;2023-08-08T11:34:17;99050.38;;;30.56;42.15
20228;BME280;12195;55.790;37.572;2023-08-08T11:37:01;99055.63;;;30.87;42.01
20228;BME280;12195;55.790;37.572;2023-08-08T11:39:35;99053.84;;;30.45;42.31
20228;BME280;12195;55.790;37.572;2023-08-08T11:42:19;99072.83;;;30.63;41.92
20228;BME280;12195;55.790;37.572;2023-08-08T11:44:53;99061.28;;;30.14;42.70
20228;BME280;12195;55.790;37.572;2023-08-08T11:47:39;99076.22;;;30.41;42.99
20228;BME280;12195;55.790;37.572;2023-08-08T11:50:13;99066.41;;;29.97;43.48
20228;BME280;12195;55.790;37.572;2023-08-08T11:53:00;99077.39;;;30.27;43.05
20228;BME280;12195;55.790;37.572;2023-08-08T11:55:47;99074.47;;;30.28;42.94
20228;BME280;12195;55.790;37.572;2023-08-08T11:58:24;99064.25;;;30.06;43.29
20228;BME280;12195;55.790;37.572;2023-08-08T12:01:10;99071.00;;;30.57;42.99
20228;BME280;12195;55.790;37.572;2023-08-08T12:03:46;99051.74;;;30.47;42.12
20228;BME280;12195;55.790;37.572;2023-08-08T12:06:20;99053.23;;;30.61;42.13
20228;BME280;12195;55.790;37.572;2023-08-08T12:09:05;99061.83;;;31.06;41.75
20228;BME280;12195;55.790;37.572;2023-08-08T12:11:39;99050.36;;;30.92;42.03
20228;BME280;12195;55.790;37.572;2023-08-08T12:14:23;99055.25;;;31.43;41.09
20228;BME280;12195;55.790;37.572;2023-08-08T12:17:09;99045.73;;;31.63;40.93
20228;BME280;12195;55.790;37.572;2023-08-08T12:19:54;99044.05;;;31.51;40.88
20228;BME280;12195;55.790;37.572;2023-08-08T12:22:27;99040.53;;;31.50;40.50
20228;BME280;12195;55.790;37.572;2023-08-08T12:25:14;99058.43;;;32.15;39.66
20228;BME280;12195;55.790;37.572;2023-08-08T12:27:59;99067.88;;;32.36;39.49
20228;BME280;12195;55.790;37.572;2023-08-08T12:30:32;99049.44;;;32.15;38.83
20228;BME280;12195;55.790;37.572;2023-08-08T12:33:17;99063.64;;;32.79;38.45
20228;BME280;12195;55.790;37.572;2023-08-08T12:35:49;99060.11;;;32.79;38.00
20228;BME280;12195;55.790;37.572;2023-08-08T12:38:32;99060.34;;;33.45;37.28
20228;BME280;12195;55.790;37.572;2023-08-08T12:41:06;99059.83;;;34.31;35.21
20228;BME280;12195;55.790;37.572;2023-08-08T12:43:49;99059.78;;;36.89;32.59
20228;BME280;12195;55.790;37.572;2023-08-08T12:46:22;99046.41;;;39.17;27.62
20228;BME280;12195;55.790;37.572;2023-08-08T12:49:08;99052.30;;;42.11;25.07
20228;BME280;12195;55.790;37.572;2023-08-08T12:51:54;99050.83;;;43.93;23.24
20228;BME280;12195;55.790;37.572;2023-08-08T12:54:27;99038.00;;;43.39;22.38
20228;BME280;12195;55.790;37.572;2023-08-08T12:57:12;99060.09;;;46.25;20.51
20228;BME280;12195;55.790;37.572;2023-08-08T12:59:45;99043.23;;;46.30;19.21
20228;BME280;12195;55.790;37.572;2023-08-08T13:02:30;99044.72;;;47.64;19.26
20228;BME280;12195;55.790;37.572;2023-08-08T13:05:17;99046.77;;;48.20;18.79
20228;BME280;12195;55.790;37.572;2023-08-08T13:08:01;99039.39;;;47.71;19.10
20228;BME280;12195;55.790;37.572;2023-08-08T13:10:35;98989.46;;;47.13;18.21
20228;BME280;12195;55.790;37.572;2023-08-08T13:13:20;99040.53;;;48.47;18.80
20228;BME280;12195;55.790;37.572;2023-08-08T13:15:55;99030.58;;;46.03;19.33
20228;BME280;12195;55.790;37.572;2023-08-08T13:18:39;99038.02;;;48.54;18.25
20228;BME280;12195;55.790;37.572;2023-08-08T13:21:13;99025.24;;;48.08;17.53
20228;BME280;12195;55.790;37.572;2023-08-08T13:23:58;99033.86;;;49.63;17.28
20228;BME280;12195;55.790;37.572;2023-08-08T13:26:31;99023.11;;;48.86;16.79
20228;BME280;12195;55.790;37.572;2023-08-08T13:29:15;99027.43;;;50.49;16.52
20228;BME280;12195;55.790;37.572;2023-08-08T13:31:48;99025.59;;;50.10;15.97
20228;BME280;12195;55.790;37.572;2023-08-08T13:34:34;99031.71;;;51.27;15.97
20228;BME280;12195;55.790;37.572;2023-08-08T13:37:07;99023.16;;;46.62;18.86
20228;BME280;12195;55.790;37.572;2023-08-08T13:39:52;99031.42;;;47.49;18.75
20228;BME280;12195;55.790;37.572;2023-08-08T13:42:25;99020.05;;;44.55;20.88
20228;BME280;12195;55.790;37.572;2023-08-08T13:45:09;99024.48;;;44.34;21.50
20228;BME280;12195;55.790;37.572;2023-08-08T13:47:54;99039.45;;;43.37;22.68
20228;BME280;12195;55.790;37.572;2023-08-08T13:50:28;99027.48;;;41.61;24.37
20228;BME280;12195;55.790;37.572;2023-08-08T13:53:12;99039.58;;;42.42;23.93
20228;BME280;12195;55.790;37.572;2023-08-08T13:55:45;99015.91;;;42.23;23.64
20228;BME280;12195;55.790;37.572;2023-08-08T13:58:19;99016.91;;;43.08;22.66
20228;BME280;12195;55.790;37.572;2023-08-08T14:01:06;99036.63;;;45.12;21.41
20228;BME280;12195;55.790;37.572;2023-08-08T14:03:39;99019.05;;;45.33;20.25
20228;BME280;12195;55.790;37.572;2023-08-08T14:06:23;99023.24;;;47.03;19.49